Latest Weather Observations for Mandurah

IDW60901

Issued at 9:25 pm WST Tuesday 16 September 2014 (issued every 10 minutes, with the page automatically refreshed every 10 minutes)

About weather observations | Map of Perth area stations | Latest observations for Perth area | Other Formats
Station Details ID: 009977 Name: MANDURAH Lat: -32.52 Lon: 115.71 Height: 3.0 m
Data from the previous 72 hours. | See also: Recent months at Mandurah
Date/Time
WST
Tmp

°C
App
Tmp
°C
Dew
Point
°C
Rel
Hum
%
Delta-T

°C
Wind Press
QNH
hPa
Press
MSL
hPa
Rain
since
9 am
mm
Dir
 
Spd
km/h
Gust
km/h
Spd
kts
Gust
kts
16/09:00pm 17.8 16.3 10.4 62 3.9 SE 9 11 5 6 1017.4 1017.4 0.0
16/08:30pm 18.1 16.6 10.5 61 4.1 SE 9 13 5 7 1017.3 1017.3 0.0
16/08:00pm 18.6 17.2 10.9 61 4.2 SE 9 13 5 7 1017.2 1017.2 0.0
16/07:30pm 19.2 17.4 10.7 58 4.6 SE 11 17 6 9 1017.0 1017.0 0.0
16/07:00pm 19.9 17.7 10.9 56 4.9 SE 13 17 7 9 1016.8 1016.8 0.0
16/06:30pm 20.6 18.5 11.0 54 5.3 SE 13 19 7 10 1016.5 1016.5 0.0
16/06:00pm 21.4 18.6 11.4 53 5.5 SSE 17 22 9 12 1016.2 1016.2 0.0
16/05:30pm 22.3 20.4 11.7 51 5.9 SSE 13 19 7 10 1016.0 1016.0 0.0
16/05:00pm 22.8 20.3 11.2 48 6.4 SSE 15 22 8 12 1015.9 1015.9 0.0
16/04:30pm 23.8 21.7 9.8 41 7.6 SSE 11 15 6 8 1016.0 1016.0 0.0
16/04:00pm 24.5 23.0 9.3 38 8.2 ESE 7 15 4 8 1016.0 1016.0 0.0
16/03:30pm 24.8 22.9 9.1 37 8.5 E 9 13 5 7 1016.0 1016.0 0.0
16/03:00pm 24.5 22.2 8.9 37 8.4 E 11 19 6 10 1016.3 1016.3 0.0
16/02:30pm 24.2 22.1 8.2 36 8.5 ESE 9 17 5 9 1016.4 1016.4 0.0
16/02:00pm 24.4 22.4 8.8 37 8.4 ESE 9 17 5 9 1016.7 1016.7 0.0
16/01:30pm 24.1 22.6 9.3 39 8.0 ESE 7 17 4 9 1016.9 1016.9 0.0
16/01:00pm 22.3 20.2 8.1 40 7.4 SE 9 19 5 10 1017.6 1017.6 0.0
16/12:30pm 22.5 20.6 9.0 42 7.2 ESE 9 20 5 11 1018.1 1018.1 0.0
16/12:00pm 21.2 19.0 7.8 42 6.9 SE 9 20 5 11 1019.0 1019.0 0.0
16/11:30am 21.3 18.8 8.2 43 6.8 ESE 11 17 6 9 1019.5 1019.5 0.0
16/11:00am 19.7 16.6 7.4 45 6.3 ESE 13 20 7 11 1019.9 1019.9 0.0
16/10:30am 18.9 15.5 7.7 48 5.7 ESE 15 22 8 12 1020.3 1020.3 0.0
16/10:00am 18.3 15.4 8.3 52 5.1 ESE 13 19 7 10 1020.7 1020.7 0.0
16/09:30am 17.3 13.7 8.2 55 4.6 E 17 24 9 13 1020.8 1020.8 0.0
16/09:00am 16.0 12.1 8.7 62 3.7 E 19 30 10 16 1021.2 1021.2 0.0
16/08:30am 15.0 11.8 8.5 65 3.3 E 15 22 8 12 1021.6 1021.6 0.0
16/08:00am 13.7 10.2 8.7 72 2.5 E 17 24 9 13 1021.3 1021.3 0.0
16/07:30am 12.6 10.3 9.1 79 1.8 ESE 11 19 6 10 1021.4 1021.4 0.0
16/07:00am 11.6 9.3 9.0 84 1.3 ESE 11 15 6 8 1021.2 1021.2 0.0
16/06:30am 11.2 9.1 8.4 83 1.4 ESE 9 15 5 8 1021.0 1021.0 0.0
16/06:00am 11.4 8.9 8.4 82 1.5 ESE 11 17 6 9 1021.0 1021.0 0.0
16/05:30am 11.7 9.3 8.6 81 1.5 ESE 11 17 6 9 1021.2 1021.2 0.0
16/05:00am 11.8 9.0 8.5 80 1.6 E 13 20 7 11 1020.8 1020.8 0.0
16/04:30am 11.9 9.0 8.2 78 1.8 ESE 13 22 7 12 1020.6 1020.6 0.0
16/04:00am 12.2 9.0 8.3 77 1.9 ESE 15 22 8 12 1020.1 1020.1 0.0
16/03:30am 12.6 9.7 8.1 74 2.2 SE 13 19 7 10 1020.3 1020.3 0.0
16/03:00am 12.6 9.3 7.9 73 2.3 ESE 15 22 8 12 1020.1 1020.1 0.0
16/02:30am 12.8 9.0 7.5 70 2.6 ESE 17 24 9 13 1020.3 1020.3 0.0
16/02:00am 13.2 9.3 7.2 67 2.9 ESE 17 24 9 13 1020.5 1020.5 0.0
16/01:30am 13.5 9.9 6.8 64 3.2 ESE 15 24 8 13 1020.2 1020.2 0.0
16/01:00am 14.0 10.8 6.8 62 3.5 SE 13 22 7 12 1020.9 1020.9 0.0
16/12:30am 14.8 11.0 7.4 61 3.6 SE 17 26 9 14 1021.2 1021.2 0.0
16/12:00am 15.1 11.4 7.9 62 3.6 SSE 17 24 9 13 1021.3 1021.3 0.0
 
Date/Time
WST
Tmp

°C
App
Tmp
°C
Dew
Point
°C
Rel
Hum
%
Delta-T

°C
Wind Press
QNH
hPa
Press
MSL
hPa
Rain
since
9 am
mm
Dir
 
Spd
km/h
Gust
km/h
Spd
kts
Gust
kts
15/11:30pm 15.0 12.2 8.5 65 3.3 SSE 13 20 7 11 1021.1 1021.1 0.0
15/11:00pm 15.1 12.1 9.2 68 3.0 SSE 15 19 8 10 1021.2 1021.2 0.0
15/10:30pm 15.3 12.8 9.7 69 2.9 SSE 13 20 7 11 1021.5 1021.5 0.0
15/10:00pm 15.7 13.1 10.7 72 2.6 SSE 15 20 8 11 1021.8 1021.8 0.0
15/09:30pm 16.2 13.6 10.7 70 2.9 SSE 15 22 8 12 1022.0 1022.0 0.0
15/09:00pm 16.5 14.4 11.2 71 2.8 SSE 13 19 7 10 1022.2 1022.2 0.0
15/08:30pm 16.8 14.3 11.1 69 3.1 SSE 15 20 8 11 1022.2 1022.2 0.0
15/08:00pm 17.4 14.4 10.8 65 3.5 SSE 17 26 9 14 1022.2 1022.2 0.0
15/07:30pm 17.4 14.3 10.3 63 3.8 S 17 24 9 13 1022.1 1022.1 0.0
15/07:00pm 17.4 14.2 10.1 62 3.8 S 17 24 9 13 1021.9 1021.9 0.0
15/06:30pm 17.6 14.5 10.2 62 3.9 S 17 24 9 13 1021.9 1021.9 0.0
15/06:00pm 18.0 14.6 10.4 61 4.0 S 19 26 10 14 1021.8 1021.8 0.0
15/05:30pm 18.3 14.7 10.4 60 4.2 S 20 30 11 16 1021.6 1021.6 0.0
15/05:00pm 18.8 15.4 10.6 59 4.4 S 19 30 10 16 1021.4 1021.4 0.0
15/04:30pm 19.4 15.9 10.9 58 4.6 SSW 20 30 11 16 1021.2 1021.2 0.0
15/04:00pm 20.6 17.8 11.5 56 5.0 SSW 17 24 9 13 1021.1 1021.1 0.0
15/03:30pm 20.9 18.5 11.5 55 5.2 SSW 15 22 8 12 1020.9 1020.9 0.0
15/03:00pm 21.3 19.5 12.2 56 5.1 S 13 19 7 10 1021.0 1021.0 0.0
15/02:30pm 21.2 19.3 11.8 55 5.2 S 13 22 7 12 1021.1 1021.1 0.0
15/02:00pm 21.0 19.5 11.9 56 5.1 S 11 19 6 10 1021.4 1021.4 0.0
15/01:30pm 20.6 18.7 11.8 57 4.9 S 13 19 7 10 1021.8 1021.8 0.0
15/01:00pm 20.4 18.9 11.9 58 4.7 S 11 20 6 11 1022.1 1022.1 0.0
15/12:30pm 20.5 18.7 12.0 58 4.7 S 13 20 7 11 1022.4 1022.4 0.0
15/12:00pm 19.9 18.3 11.4 58 4.7 S 11 19 6 10 1022.8 1022.8 0.0
15/11:30am 19.0 17.8 11.6 62 4.1 S 9 13 5 7 1023.1 1023.1 0.0
15/11:00am 19.5 18.6 11.5 60 4.4 SE 7 13 4 7 1023.4 1023.4 0.0
15/10:30am 19.4 18.8 12.4 64 3.9 SE 7 13 4 7 1023.6 1023.6 0.0
15/10:00am 17.1 15.7 12.2 73 2.7 SSE 11 17 6 9 1024.0 1024.0 0.0
15/09:30am 16.4 14.7 12.6 78 2.1 SSE 13 19 7 10 1024.4 1024.4 0.0
15/09:00am 15.4 14.6 12.9 85 1.4 S 9 13 5 7 1024.6 1024.6 0.0
15/08:30am 14.6 14.0 13.5 93 0.6 SSE 9 15 5 8 1024.7 1024.7 0.0
15/08:00am 14.0 13.5 13.8 99 0.1 S 9 13 5 7 1024.6 1024.6 0.0
15/07:30am 13.5 12.8 13.3 99 0.1 SSE 9 13 5 7 1024.4 1024.4 0.0
15/07:00am 13.4 13.1 13.2 99 0.1 ESE 7 13 4 7 1024.5 1024.5 0.0
15/06:30am 13.6 12.6 13.4 99 0.1 SE 11 15 6 8 1024.1 1024.1 0.0
15/06:00am 13.8 12.9 13.6 99 0.1 SE 11 13 6 7 1024.2 1024.2 0.0
15/05:30am 13.7 12.8 13.7 100 0.0 SSE 11 17 6 9 1024.0 1024.0 0.0
15/05:00am 13.8 13.3 13.8 100 0.0 SSE 9 13 5 7 1023.7 1023.7 0.0
15/04:30am 13.9 13.7 13.7 99 0.1 SSE 7 11 4 6 1023.4 1023.4 0.0
15/04:00am 13.7 14.0 13.5 99 0.1 E 4 7 2 4 1023.2 1023.2 0.0
15/03:30am 14.0 14.8 13.8 99 0.1 E 2 4 1 2 1023.2 1023.2 0.0
15/03:00am 14.1 14.6 13.9 99 0.1 E 4 6 2 3 1023.4 1023.4 0.0
15/02:30am 14.6 16.0 14.4 99 0.1 CALM 0 0 0 0 1023.5 1023.5 0.0
15/02:00am 15.1 15.9 14.9 99 0.1 SSE 4 7 2 4 1023.6 1023.6 0.0
15/01:30am 15.1 15.9 14.8 98 0.2 S 4 7 2 4 1023.8 1023.8 0.0
15/01:00am 15.0 16.0 14.2 95 0.4 ESE 2 6 1 3 1023.7 1023.7 0.0
15/12:30am 15.6 15.8 14.6 94 0.6 S 7 11 4 6 1023.6 1023.6 0.0
15/12:00am 15.9 15.3 14.6 92 0.7 S 11 19 6 10 1023.5 1023.5 0.0
 
Date/Time
WST
Tmp

°C
App
Tmp
°C
Dew
Point
°C
Rel
Hum
%
Delta-T

°C
Wind Press
QNH
hPa
Press
MSL
hPa
Rain
since
9 am
mm
Dir
 
Spd
km/h
Gust
km/h
Spd
kts
Gust
kts
14/11:30pm 15.8 15.9 13.8 88 1.1 S 6 7 3 4 1023.4 1023.4 0.0
14/11:00pm 16.0 16.0 13.7 86 1.3 SSW 6 7 3 4 1023.6 1023.6 0.0
14/10:30pm 16.4 16.3 13.9 85 1.4 SSW 7 9 4 5 1024.0 1024.0 0.0
14/10:00pm 16.6 16.1 13.9 84 1.5 S 9 19 5 10 1024.2 1024.2 0.0
14/09:30pm 16.8 15.8 14.6 87 1.3 S 13 19 7 10 1024.4 1024.4 0.0
14/09:00pm 16.9 16.5 15.2 90 1.0 S 11 15 6 8 1024.3 1024.3 0.0
14/08:30pm 16.8 17.0 14.8 88 1.2 SSW 7 13 4 7 1024.3 1024.3 0.0
14/08:00pm 16.8 17.0 14.3 85 1.4 SW 6 9 3 5 1024.1 1024.1 0.0
14/07:30pm 17.0 16.8 13.5 80 2.0 SSW 7 9 4 5 1023.9 1023.9 0.0
14/07:00pm 17.3 17.0 13.2 77 2.3 SSW 7 11 4 6 1023.5 1023.5 0.0
14/06:30pm 17.7 16.9 12.8 73 2.7 SW 9 13 5 7 1023.3 1023.3 0.0
14/06:00pm 18.0 16.9 12.0 68 3.3 SW 9 13 5 7 1022.9 1022.9 0.0
14/05:30pm 19.0 17.9 11.8 63 4.0 WSW 9 11 5 6 1022.7 1022.7 0.0
14/05:00pm 19.4 18.4 12.2 63 4.0 WSW 9 13 5 7 1022.6 1022.6 0.0
14/04:30pm 19.5 17.5 11.5 60 4.4 W 13 17 7 9 1022.7 1022.7 0.0
14/04:00pm 19.6 18.0 11.6 60 4.4 W 11 15 6 8 1022.5 1022.5 0.0
14/03:30pm 19.8 17.7 11.3 58 4.7 W 13 17 7 9 1022.4 1022.4 0.0
14/03:00pm 19.4 17.1 10.4 56 4.8 W 13 17 7 9 1022.2 1022.2 0.0
14/02:30pm 20.0 18.2 10.7 55 5.1 WNW 11 15 6 8 1022.0 1022.0 0.0
14/02:00pm 19.8 17.1 10.2 54 5.1 W 15 19 8 10 1022.2 1022.2 0.0
14/01:30pm 20.0 17.9 11.0 56 4.9 WNW 13 15 7 8 1022.2 1022.2 0.0
14/01:00pm 19.3 17.3 10.3 56 4.8 WNW 11 15 6 8 1022.3 1022.3 0.0
14/12:30pm 19.6 17.7 10.6 56 4.9 NW 11 15 6 8 1022.6 1022.6 0.0
14/12:00pm 19.8 18.4 11.0 57 4.8 NW 9 9 5 5 1022.9 1022.9 0.0
14/11:30am 19.7 18.5 11.7 60 4.4 NNW 9 9 5 5 1023.1 1023.1 0.0
14/11:00am 19.9 19.4 10.6 55 5.0 ESE 4 7 2 4 1023.1 1023.1 0.0
14/10:30am 18.9 18.0 10.5 58 4.5 N 6 7 3 4 1023.1 1023.1 0.0
14/10:00am 18.7 17.6 10.0 57 4.6 ENE 6 7 3 4 1023.3 1023.3 0.0
14/09:30am 17.6 16.7 10.5 63 3.8 ENE 6 9 3 5 1023.3 1023.3 0.0
14/09:00am 16.3 15.2 9.9 66 3.3 E 6 9 3 5 1023.3 1023.3 0.0
14/08:30am 14.4 13.6 9.8 74 2.4 E 4 7 2 4 1023.2 1023.2 0.0
14/08:00am 13.0 12.2 9.6 80 1.7 E 4 7 2 4 1023.1 1023.1 0.0
14/07:30am 11.1 9.7 9.0 87 1.0 E 6 7 3 4 1022.8 1022.8 0.0
14/07:00am 10.2 9.5 8.5 89 0.8 E 2 6 1 3 1022.5 1022.5 0.0
14/06:30am 9.7 9.2 7.8 88 0.9 CALM 0 6 0 3 1022.3 1022.3 0.0
14/06:00am 9.9 9.0 7.8 87 1.0 E 2 4 1 2 1022.1 1022.1 0.0
14/05:30am 10.3 9.1 8.2 87 1.0 ESE 4 7 2 4 1021.9 1021.9 0.0
14/05:00am 10.5 9.0 8.3 86 1.1 E 6 9 3 5 1021.6 1021.6 0.0
14/04:30am 10.5 8.9 8.6 88 0.9 E 7 9 4 5 1021.5 1021.5 0.0
14/04:00am 10.5 8.9 8.6 88 0.9 ESE 7 9 4 5 1021.6 1021.6 0.0
14/03:30am 10.8 9.4 8.9 88 0.9 ESE 6 7 3 4 1021.7 1021.7 0.0
14/03:00am 11.1 10.1 8.8 86 1.1 SE 4 6 2 3 1021.5 1021.5 0.0
14/02:30am 11.6 10.3 9.2 85 1.2 SE 6 7 3 4 1021.5 1021.5 0.0
14/02:00am 11.9 10.6 9.3 84 1.3 SE 6 7 3 4 1021.7 1021.7 0.0
14/01:30am 11.6 10.1 8.6 82 1.5 SE 6 7 3 4 1021.9 1021.9 0.0
14/01:00am 12.4 10.9 8.5 77 1.9 SE 6 7 3 4 1022.3 1022.3 0.0
14/12:30am 13.0 11.5 9.1 77 2.0 SSE 7 9 4 5 1022.4 1022.4 0.0
14/12:00am 13.4 12.2 9.5 77 2.0 SSE 6 7 3 4 1022.6 1022.6 0.0
 
Date/Time
WST
Tmp

°C
App
Tmp
°C
Dew
Point
°C
Rel
Hum
%
Delta-T

°C
Wind Press
QNH
hPa
Press
MSL
hPa
Rain
since
9 am
mm
Dir
 
Spd
km/h
Gust
km/h
Spd
kts
Gust
kts
13/11:30pm 13.3 12.0 9.2 76 2.1 SSE 6 7 3 4 1022.5 1022.5 0.0
13/11:00pm 13.2 11.9 9.3 77 2.0 SE 6 7 3 4 1022.3 1022.3 0.0
13/10:30pm 13.3 12.0 9.2 76 2.1 SE 6 7 3 4 1022.3 1022.3 0.0
13/10:00pm 12.9 11.7 8.0 72 2.4 ESE 4 6 2 3 1022.5 1022.5 0.0
13/09:30pm 13.2 12.5 7.0 66 3.0 CALM 0 0 0 0 1022.6 1022.6 0.0

Latest Capital City Observations: Canberra | Sydney | Melbourne | Brisbane | Adelaide | Perth | Hobart | Darwin

Other Formats:

Comma delimited format used in spreadsheet applications
http://www.bom.gov.au/fwo/IDW60901/IDW60901.94605.axf

JavaScript Object Notation format (JSON) in row-major order
http://www.bom.gov.au/fwo/IDW60901/IDW60901.94605.json